createdAt,value
2019-05-12T00:00:07.839Z,100424.18
2019-05-12T00:02:40.120Z,100426.30
2019-05-12T00:05:11.554Z,100426.11
2019-05-12T00:07:41.794Z,100420.37
2019-05-12T00:10:12.775Z,100424.61
2019-05-12T00:12:43.592Z,100417.08
2019-05-12T00:15:15.649Z,100417.97
2019-05-12T00:17:48.020Z,100421.92
2019-05-12T00:20:18.489Z,100421.69
2019-05-12T00:22:50.850Z,100423.29
2019-05-12T00:25:21.865Z,100421.42
2019-05-12T00:27:52.591Z,100429.50
2019-05-12T00:30:33.485Z,100423.25
2019-05-12T00:33:04.824Z,100427.66
2019-05-12T00:35:35.022Z,100426.39
2019-05-12T00:38:05.268Z,100429.34
2019-05-12T00:40:35.548Z,100433.58
2019-05-12T00:43:08.468Z,100430.44
2019-05-12T00:45:39.857Z,100426.39
2019-05-12T00:48:11.143Z,100421.53
2019-05-12T00:50:41.361Z,100423.48
2019-05-12T00:53:11.682Z,100418.75
2019-05-12T00:55:41.926Z,100422.22
2019-05-12T00:58:12.137Z,100425.81
2019-05-12T01:00:42.377Z,100424.51
2019-05-12T01:03:12.618Z,100432.02
2019-05-12T01:05:42.898Z,100431.53
2019-05-12T01:08:13.525Z,100422.30
2019-05-12T01:10:43.851Z,100428.84
2019-05-12T01:13:14.096Z,100431.13
2019-05-12T01:15:44.338Z,100432.02
2019-05-12T01:18:14.630Z,100433.41
2019-05-12T01:20:44.927Z,100442.64
2019-05-12T01:23:15.515Z,100439.05
2019-05-12T01:25:47.783Z,100443.66
2019-05-12T01:28:18.507Z,100437.98
2019-05-12T01:30:49.391Z,100439.61
2019-05-12T01:33:19.792Z,100443.00
2019-05-12T01:35:50.013Z,100449.49
2019-05-12T01:38:20.250Z,100445.16
2019-05-12T01:40:50.481Z,100453.73
2019-05-12T01:43:21.221Z,100441.29
2019-05-12T01:45:51.763Z,100450.80
2019-05-12T01:48:22.369Z,100452.52
2019-05-12T01:50:53.016Z,100454.95
2019-05-12T01:53:23.684Z,100455.61
2019-05-12T01:55:54.516Z,100453.66
2019-05-12T01:58:25.156Z,100471.16
2019-05-12T02:00:55.463Z,100468.19
2019-05-12T02:03:25.675Z,100474.76
2019-05-12T02:05:59.959Z,100479.45
2019-05-12T02:08:38.385Z,100482.39
2019-05-12T02:11:28.745Z,100480.23
2019-05-12T02:13:58.942Z,100492.02
2019-05-12T02:16:29.244Z,100491.98
2019-05-12T02:18:59.819Z,100498.80
2019-05-12T02:21:31.448Z,100503.58
2019-05-12T02:24:01.857Z,100501.00
2019-05-12T02:26:32.430Z,100502.77
2019-05-12T02:29:03.150Z,100510.08
2019-05-12T02:31:35.098Z,100506.97
2019-05-12T02:34:05.991Z,100506.80
2019-05-12T02:36:36.645Z,100507.25
2019-05-12T02:39:08.297Z,100510.59
2019-05-12T02:41:39.499Z,100509.87
2019-05-12T02:44:10.147Z,100515.78
2019-05-12T02:46:44.538Z,100510.96
2019-05-12T02:49:15.518Z,100509.13
2019-05-12T02:51:46.630Z,100506.95
2019-05-12T02:54:18.636Z,100506.02
2019-05-12T02:56:50.578Z,100505.43
2019-05-12T02:59:25.329Z,100514.22
2019-05-12T03:02:00.862Z,100513.45
2019-05-12T03:04:34.962Z,100511.16
2019-05-12T03:07:06.522Z,100516.10
2019-05-12T03:09:36.580Z,100522.36
2019-05-12T03:12:07.538Z,100530.20
2019-05-12T03:14:40.917Z,100530.52
2019-05-12T03:17:10.213Z,100536.98
2019-05-12T03:19:40.512Z,100539.22
2019-05-12T03:22:13.927Z,100542.03
2019-05-12T03:24:44.924Z,100534.89
2019-05-12T03:27:17.686Z,100530.67
2019-05-12T03:29:47.866Z,100535.38
2019-05-12T03:32:18.314Z,100537.42
2019-05-12T03:34:48.594Z,100550.23
2019-05-12T03:37:19.200Z,100539.69
2019-05-12T03:39:49.764Z,100550.96
2019-05-12T03:42:24.818Z,100555.30
2019-05-12T03:44:54.712Z,100556.45
2019-05-12T03:47:26.582Z,100549.25
2019-05-12T03:49:56.883Z,100556.84
2019-05-12T03:52:27.137Z,100554.90
2019-05-12T03:54:57.356Z,100558.64
2019-05-12T03:57:27.596Z,100563.20
2019-05-12T03:59:57.821Z,100557.56
2019-05-12T04:02:28.143Z,100562.38
2019-05-12T04:04:58.797Z,100558.23
2019-05-12T04:07:29.112Z,100568.42
2019-05-12T04:09:59.335Z,100565.03
2019-05-12T04:12:29.942Z,100567.51
2019-05-12T04:15:00.375Z,100570.39
2019-05-12T04:17:30.626Z,100575.29
2019-05-12T04:20:00.855Z,100577.83
2019-05-12T04:22:31.112Z,100584.90
2019-05-12T04:25:01.342Z,100581.17
2019-05-12T04:27:34.775Z,100586.27
2019-05-12T04:30:08.407Z,100588.78
2019-05-12T04:32:38.689Z,100597.89
2019-05-12T04:35:10.929Z,100592.50
2019-05-12T04:37:44.669Z,100600.07
2019-05-12T04:40:15.082Z,100593.80
2019-05-12T04:42:45.830Z,100603.80
2019-05-12T04:45:16.533Z,100604.23
2019-05-12T04:47:46.830Z,100609.17
2019-05-12T04:50:17.438Z,100609.08
2019-05-12T04:52:47.721Z,100605.50
2019-05-12T04:55:17.968Z,100609.86
2019-05-12T04:57:48.184Z,100614.23
2019-05-12T05:00:19.010Z,100621.59
2019-05-12T05:02:49.599Z,100621.14
2019-05-12T05:05:20.249Z,100623.39
2019-05-12T05:07:54.161Z,100624.34
2019-05-12T05:10:25.104Z,100621.21
2019-05-12T05:12:55.903Z,100624.86
2019-05-12T05:15:26.196Z,100629.80
2019-05-12T05:17:56.847Z,100632.83
2019-05-12T05:20:27.139Z,100633.77
2019-05-12T05:22:57.384Z,100637.75
2019-05-12T05:25:27.968Z,100639.66
2019-05-12T05:27:58.611Z,100644.97
2019-05-12T05:30:31.017Z,100643.46
2019-05-12T05:33:04.075Z,100643.36
2019-05-12T05:35:39.541Z,100655.41
2019-05-12T05:38:10.763Z,100647.77
2019-05-12T05:40:39.988Z,100662.48
2019-05-12T05:43:12.952Z,100664.20
2019-05-12T05:45:44.699Z,100662.16
2019-05-12T05:48:15.244Z,100664.66
2019-05-12T05:50:45.895Z,100680.04
2019-05-12T05:53:19.505Z,100662.31
2019-05-12T05:55:50.301Z,100676.72
2019-05-12T05:58:21.365Z,100680.33
2019-05-12T06:00:54.804Z,100691.91
2019-05-12T06:03:27.789Z,100693.26
2019-05-12T06:06:01.508Z,100686.72
2019-05-12T06:08:29.105Z,100691.59
2019-05-12T06:10:59.759Z,100686.31
2019-05-12T06:13:31.814Z,100697.32
2019-05-12T06:16:04.999Z,100701.22
2019-05-12T06:18:36.452Z,100702.27
2019-05-12T06:21:09.088Z,100697.57
2019-05-12T06:23:40.250Z,100701.42
2019-05-12T06:26:13.810Z,100701.58
2019-05-12T06:28:44.028Z,100704.20
2019-05-12T06:31:19.018Z,100700.73
2019-05-12T06:33:48.983Z,100713.12
2019-05-12T06:36:24.378Z,100714.08
2019-05-12T06:38:59.395Z,100716.77
2019-05-12T06:41:34.987Z,100718.30
2019-05-12T06:44:08.768Z,100725.51
2019-05-12T06:46:44.217Z,100726.88
2019-05-12T06:49:17.693Z,100720.27
2019-05-12T06:51:53.466Z,100721.13
2019-05-12T06:54:24.784Z,100724.63
2019-05-12T06:57:18.582Z,100731.55
2019-05-12T06:59:33.852Z,100741.02
2019-05-12T07:02:09.600Z,100737.52
2019-05-12T07:04:49.743Z,100739.97
2019-05-12T07:07:15.176Z,100736.52
2019-05-12T07:09:53.807Z,100750.95
2019-05-12T07:12:24.806Z,100746.45
2019-05-12T07:14:55.601Z,100747.89
2019-05-12T07:17:25.639Z,100747.20
2019-05-12T07:19:58.270Z,100744.83
2019-05-12T07:22:31.824Z,100739.11
2019-05-12T07:25:04.554Z,100742.27
2019-05-12T07:27:39.570Z,100740.22
2019-05-12T07:30:09.124Z,100738.77
2019-05-12T07:32:51.275Z,100745.23
2019-05-12T07:35:19.272Z,100755.95
2019-05-12T07:37:53.446Z,100738.84
2019-05-12T07:40:37.263Z,100741.48
2019-05-12T07:43:18.584Z,100743.84
2019-05-12T07:45:45.193Z,100751.42
2019-05-12T07:48:23.711Z,100756.02
2019-05-12T07:51:35.625Z,100761.03
2019-05-12T07:53:57.252Z,100763.80
2019-05-12T07:56:26.026Z,100758.36
2019-05-12T07:58:57.167Z,100757.33
2019-05-12T08:01:28.330Z,100758.14
2019-05-12T08:04:01.582Z,100758.99
2019-05-12T08:06:41.403Z,100766.09
2019-05-12T08:09:08.950Z,100762.70
2019-05-12T08:11:40.243Z,100767.30
2019-05-12T08:14:13.776Z,100771.53
2019-05-12T08:16:44.639Z,100769.56
2019-05-12T08:19:23.756Z,100772.82
2019-05-12T08:21:53.602Z,100761.23
2019-05-12T08:24:28.602Z,100769.80
2019-05-12T08:27:05.784Z,100771.54
2019-05-12T08:29:34.309Z,100767.10
2019-05-12T08:32:09.907Z,100764.77
2019-05-12T08:34:43.719Z,100777.67
2019-05-12T08:37:15.530Z,100795.91
2019-05-12T08:39:45.879Z,100791.80
2019-05-12T08:42:16.392Z,100788.27
2019-05-12T08:44:47.049Z,100788.16
2019-05-12T08:47:20.538Z,100789.55
2019-05-12T08:49:55.994Z,100787.47
2019-05-12T08:52:44.182Z,100806.40
2019-05-12T08:55:25.077Z,100806.56
2019-05-12T08:58:00.493Z,100807.10
2019-05-12T09:00:59.823Z,100778.34
2019-05-12T09:03:38.146Z,100771.88
2019-05-12T09:06:19.489Z,100771.22
2019-05-12T09:08:49.582Z,100791.05
2019-05-12T09:11:20.427Z,100791.20
2019-05-12T09:13:52.800Z,100793.88
2019-05-12T09:16:24.601Z,100788.94
2019-05-12T09:18:57.402Z,100790.33
2019-05-12T09:21:31.783Z,100791.62
2019-05-12T09:24:03.955Z,100795.42
2019-05-12T09:26:34.613Z,100796.22
2019-05-12T09:29:07.489Z,100798.79
2019-05-12T09:31:38.143Z,100796.65
2019-05-12T09:34:13.376Z,100788.62
2019-05-12T09:36:44.247Z,100780.20
2019-05-12T09:39:17.059Z,100786.50
2019-05-12T09:41:52.127Z,100793.66
2019-05-12T09:44:30.259Z,100791.01
2019-05-12T09:46:58.360Z,100802.16
2019-05-12T09:49:33.323Z,100805.61
2019-05-12T09:52:04.384Z,100803.39
2019-05-12T09:54:40.933Z,100799.45
2019-05-12T09:57:08.617Z,100797.02
2019-05-12T09:59:39.289Z,100796.05
2019-05-12T10:02:17.903Z,100793.38
2019-05-12T10:04:44.234Z,100798.76
2019-05-12T10:07:14.866Z,100792.31
2019-05-12T10:09:49.159Z,100783.94
2019-05-12T10:12:19.709Z,100788.70
2019-05-12T10:14:53.539Z,100788.12
2019-05-12T10:17:26.287Z,100782.05
2019-05-12T10:19:58.164Z,100799.85
2019-05-12T10:22:35.746Z,100794.23
2019-05-12T10:25:07.546Z,100791.62
2019-05-12T10:27:39.848Z,100787.84
2019-05-12T10:30:17.398Z,100785.51
2019-05-12T10:32:46.745Z,100786.20
2019-05-12T10:35:21.630Z,100786.35
2019-05-12T10:37:49.158Z,100792.62
2019-05-12T10:40:23.310Z,100792.62
2019-05-12T10:42:53.651Z,100776.86
2019-05-12T10:45:25.463Z,100782.78
2019-05-12T10:47:55.698Z,100785.51
2019-05-12T10:50:26.190Z,100796.25
2019-05-12T10:52:56.848Z,100785.85
2019-05-12T10:55:27.587Z,100781.78
2019-05-12T10:58:01.354Z,100777.44
2019-05-12T11:00:30.682Z,100778.60
2019-05-12T11:03:01.514Z,100795.63
2019-05-12T11:05:33.959Z,100781.86
2019-05-12T11:08:10.856Z,100778.67
2019-05-12T11:10:40.057Z,100792.46
2019-05-12T11:13:10.734Z,100802.49
2019-05-12T11:15:46.191Z,100792.63
2019-05-12T11:18:14.355Z,100782.66
2019-05-12T11:20:45.165Z,100796.78
2019-05-12T11:23:15.649Z,100797.30
2019-05-12T11:25:45.879Z,100798.51
2019-05-12T11:28:16.200Z,100797.77
2019-05-12T11:30:46.401Z,100796.67
2019-05-12T11:33:16.681Z,100797.72
2019-05-12T11:35:47.423Z,100796.22
2019-05-12T11:38:18.041Z,100800.39
2019-05-12T11:40:48.372Z,100799.78
2019-05-12T11:43:18.963Z,100801.63
2019-05-12T11:45:49.628Z,100805.66
2019-05-12T11:48:20.029Z,100792.37
2019-05-12T11:50:51.370Z,100800.42
2019-05-12T11:53:30.531Z,100792.28
2019-05-12T11:55:54.451Z,100793.94
2019-05-12T11:58:25.119Z,100795.92
2019-05-12T12:00:58.582Z,100793.23
2019-05-12T12:03:29.767Z,100789.56
2019-05-12T12:06:00.407Z,100792.67
2019-05-12T12:08:33.669Z,100794.92
2019-05-12T12:11:05.249Z,100792.67
2019-05-12T12:13:35.932Z,100794.16
2019-05-12T12:16:11.197Z,100801.42
2019-05-12T12:18:39.513Z,100792.38
2019-05-12T12:21:10.223Z,100794.48
2019-05-12T12:23:46.038Z,100791.36
2019-05-12T12:26:28.928Z,100793.47
2019-05-12T12:28:57.491Z,100787.89
2019-05-12T12:31:34.689Z,100786.13
2019-05-12T12:34:02.133Z,100774.85
2019-05-12T12:36:34.211Z,100766.41
2019-05-12T12:39:06.951Z,100771.94
2019-05-12T12:41:37.742Z,100763.05
2019-05-12T12:44:08.072Z,100753.46
2019-05-12T12:46:38.446Z,100766.84
2019-05-12T12:49:10.329Z,100769.02
2019-05-12T12:51:40.946Z,100769.23
2019-05-12T12:54:11.176Z,100774.97
2019-05-12T12:56:42.021Z,100772.53
2019-05-12T12:59:14.573Z,100774.70
2019-05-12T13:01:44.403Z,100772.67
2019-05-12T13:04:14.747Z,100782.32
2019-05-12T13:06:45.024Z,100788.03
2019-05-12T13:09:24.141Z,100779.78
2019-05-12T13:11:48.981Z,100774.15
2019-05-12T13:14:19.245Z,100766.12
2019-05-12T13:16:54.575Z,100780.76
2019-05-12T13:19:23.692Z,100776.48
2019-05-12T13:21:54.219Z,100773.97
2019-05-12T13:24:24.759Z,100771.92
2019-05-12T13:26:55.290Z,100765.72
2019-05-12T13:29:34.255Z,100767.09
2019-05-12T13:31:58.306Z,100771.19
2019-05-12T13:34:36.565Z,100768.42
2019-05-12T13:37:03.339Z,100767.59
2019-05-12T13:39:33.647Z,100767.50
2019-05-12T13:42:04.364Z,100768.88
2019-05-12T13:44:40.580Z,100779.24
2019-05-12T13:47:08.214Z,100776.99
2019-05-12T13:49:41.655Z,100783.74
2019-05-12T13:52:10.738Z,100780.86
2019-05-12T13:54:43.546Z,100778.91
2019-05-12T13:57:13.790Z,100785.80
2019-05-12T13:59:44.098Z,100787.70
2019-05-12T14:02:22.261Z,100780.03
2019-05-12T14:04:46.396Z,100779.92
2019-05-12T14:07:20.131Z,100782.41
2019-05-12T14:09:48.971Z,100780.97
2019-05-12T14:12:19.254Z,100782.30
2019-05-12T14:14:49.993Z,100779.68
2019-05-12T14:17:20.646Z,100786.24
2019-05-12T14:19:53.302Z,100779.13
2019-05-12T14:22:26.373Z,100775.47
2019-05-12T14:24:56.016Z,100781.38
2019-05-12T14:27:28.733Z,100782.02
2019-05-12T14:30:00.216Z,100788.09
2019-05-12T14:32:30.893Z,100791.13
2019-05-12T14:35:01.515Z,100789.67
2019-05-12T14:37:33.596Z,100785.19
2019-05-12T14:40:05.383Z,100789.63
2019-05-12T14:42:39.809Z,100796.69
2019-05-12T14:45:08.433Z,100807.36
2019-05-12T14:47:39.160Z,100804.00
2019-05-12T14:50:11.014Z,100805.94
2019-05-12T14:52:43.755Z,100805.45
2019-05-12T14:55:14.174Z,100800.25
2019-05-12T14:57:44.747Z,100814.01
2019-05-12T15:00:21.075Z,100816.28
2019-05-12T15:02:49.054Z,100829.05
2019-05-12T15:05:19.414Z,100852.84
2019-05-12T15:07:51.444Z,100851.86
2019-05-12T15:10:23.473Z,100860.51
2019-05-12T15:12:54.419Z,100870.61
2019-05-12T15:15:25.440Z,100881.16
2019-05-12T15:18:03.597Z,100890.83
2019-05-12T15:20:28.458Z,100897.73
2019-05-12T15:22:59.205Z,100901.75
2019-05-12T15:25:35.524Z,100910.30
2019-05-12T15:28:03.922Z,100912.39
2019-05-12T15:30:34.919Z,100910.84
2019-05-12T15:33:05.620Z,100928.06
2019-05-12T15:35:35.955Z,100921.20
2019-05-12T15:38:09.423Z,100923.95
2019-05-12T15:40:38.493Z,100934.23
2019-05-12T15:43:09.411Z,100932.50
2019-05-12T15:45:39.817Z,100937.52
2019-05-12T15:48:11.765Z,100944.52
2019-05-12T15:50:45.443Z,100938.12
2019-05-12T15:53:22.155Z,100933.36
2019-05-12T15:55:49.915Z,100932.20
2019-05-12T15:58:20.350Z,100930.94
2019-05-12T16:00:51.125Z,100932.76
2019-05-12T16:03:23.563Z,100933.64
2019-05-12T16:05:54.152Z,100937.95
2019-05-12T16:08:24.602Z,100947.44
2019-05-12T16:10:56.191Z,100955.28
2019-05-12T16:13:27.370Z,100953.83
2019-05-12T16:16:03.470Z,100960.61
2019-05-12T16:18:30.392Z,100964.04
2019-05-12T16:21:07.225Z,100958.11
2019-05-12T16:23:34.176Z,100958.45
2019-05-12T16:26:10.812Z,100954.45
2019-05-12T16:28:38.992Z,100968.56
2019-05-12T16:31:09.644Z,100970.53
2019-05-12T16:33:40.310Z,100978.71
2019-05-12T16:36:14.431Z,100978.71
2019-05-12T16:38:44.563Z,100985.17
2019-05-12T16:41:19.851Z,100992.03
2019-05-12T16:43:47.686Z,100987.04
2019-05-12T16:46:18.118Z,100987.05
2019-05-12T16:48:53.622Z,100987.64
2019-05-12T16:51:20.738Z,100996.67
2019-05-12T16:53:51.353Z,100982.05
2019-05-12T16:56:26.395Z,100994.42
2019-05-12T16:58:54.287Z,101001.72
2019-05-12T17:01:29.198Z,101000.78
2019-05-12T17:03:58.982Z,101017.33
2019-05-12T17:06:36.792Z,101021.24
2019-05-12T17:09:03.359Z,101039.52
2019-05-12T17:11:37.343Z,101040.95
2019-05-12T17:14:07.359Z,101055.42
2019-05-12T17:16:41.848Z,101060.95
2019-05-12T17:19:10.854Z,101060.46
2019-05-12T17:21:41.459Z,101067.70
2019-05-12T17:24:14.445Z,101066.39
2019-05-12T17:26:44.047Z,101058.83
2019-05-12T17:29:14.607Z,101059.17
2019-05-12T17:31:45.194Z,101066.95
2019-05-12T17:34:15.503Z,101066.38
2019-05-12T17:36:50.061Z,101072.28
2019-05-12T17:39:17.698Z,101062.30
2019-05-12T17:41:48.192Z,101065.31
2019-05-12T17:44:18.926Z,101070.99
2019-05-12T17:46:49.309Z,101076.22
2019-05-12T17:49:25.296Z,101076.33
2019-05-12T17:51:53.532Z,101085.64
2019-05-12T17:54:26.491Z,101087.86
2019-05-12T17:56:57.207Z,101086.55
2019-05-12T17:59:29.507Z,101093.78
2019-05-12T18:02:05.854Z,101099.25
2019-05-12T18:04:36.784Z,101098.19
2019-05-12T18:07:13.021Z,101102.57
2019-05-12T18:09:37.881Z,101112.94
2019-05-12T18:12:08.195Z,101124.52
2019-05-12T18:14:50.030Z,101129.20
2019-05-12T18:17:10.816Z,101138.45
2019-05-12T18:19:41.450Z,101137.91
2019-05-12T18:22:14.027Z,101148.20
2019-05-12T18:24:49.311Z,101151.64
2019-05-12T18:27:16.445Z,101163.20
2019-05-12T18:29:46.756Z,101175.08
2019-05-12T18:32:17.366Z,101176.24
2019-05-12T18:34:47.644Z,101177.38
2019-05-12T18:37:18.034Z,101188.20
2019-05-12T18:39:48.227Z,101188.09
2019-05-12T18:42:18.481Z,101189.50
2019-05-12T18:44:48.698Z,101196.76
2019-05-12T18:47:23.330Z,101203.41
2019-05-12T18:49:50.952Z,101206.03
2019-05-12T18:52:23.454Z,101204.03
2019-05-12T18:54:57.237Z,101207.69
2019-05-12T18:57:26.050Z,101214.13
2019-05-12T19:00:03.447Z,101219.49
2019-05-12T19:02:28.730Z,101212.87
2019-05-12T19:04:59.666Z,101208.68
2019-05-12T19:07:39.840Z,101231.95
2019-05-12T19:10:03.783Z,101229.86
2019-05-12T19:12:35.671Z,101228.73
2019-05-12T19:15:10.174Z,101221.28
2019-05-12T19:17:40.263Z,101225.37
2019-05-12T19:20:13.419Z,101225.06
2019-05-12T19:22:54.027Z,101234.84
2019-05-12T19:25:19.175Z,101229.81
2019-05-12T19:27:55.158Z,101233.78
2019-05-12T19:30:25.138Z,101229.95
2019-05-12T19:32:54.911Z,101229.09
2019-05-12T19:35:26.082Z,101224.99
2019-05-12T19:37:56.414Z,101228.65
2019-05-12T19:40:27.040Z,101229.30
2019-05-12T19:43:03.344Z,101234.98
2019-05-12T19:45:29.684Z,101241.58
2019-05-12T19:48:00.346Z,101246.68
2019-05-12T19:50:30.724Z,101253.89
2019-05-12T19:53:00.927Z,101253.36
2019-05-12T19:55:33.635Z,101262.57
2019-05-12T19:58:10.976Z,101268.88
2019-05-12T20:00:35.574Z,101270.37
2019-05-12T20:03:08.572Z,101284.06
2019-05-12T20:05:37.904Z,101293.80
2019-05-12T20:08:08.366Z,101299.64
2019-05-12T20:10:44.620Z,101306.78
2019-05-12T20:13:13.431Z,101302.48
2019-05-12T20:15:43.845Z,101311.34
2019-05-12T20:18:14.842Z,101316.33
2019-05-12T20:20:45.756Z,101320.73
2019-05-12T20:23:17.589Z,101323.42
2019-05-12T20:25:47.986Z,101324.09
2019-05-12T20:28:18.228Z,101326.80
2019-05-12T20:30:54.398Z,101326.46
2019-05-12T20:33:20.930Z,101336.11
2019-05-12T20:35:51.664Z,101329.94
2019-05-12T20:38:25.457Z,101326.11
2019-05-12T20:40:54.368Z,101333.38
2019-05-12T20:43:32.204Z,101329.20
2019-05-12T20:45:57.020Z,101333.59
2019-05-12T20:48:31.138Z,101341.00
2019-05-12T20:50:59.339Z,101339.36
2019-05-12T20:53:31.867Z,101344.71
2019-05-12T20:56:03.700Z,101342.58
2019-05-12T20:58:43.032Z,101352.17
2019-05-12T21:01:06.899Z,101345.74
2019-05-12T21:03:39.745Z,101351.56
2019-05-12T21:06:10.007Z,101352.52
2019-05-12T21:08:46.622Z,101363.86
2019-05-12T21:11:13.507Z,101362.98
2019-05-12T21:13:44.355Z,101369.11
2019-05-12T21:16:19.468Z,101364.84
2019-05-12T21:18:55.752Z,101360.94
2019-05-12T21:21:24.490Z,101365.37
2019-05-12T21:23:54.038Z,101374.55
2019-05-12T21:26:28.404Z,101380.66
2019-05-12T21:28:55.368Z,101378.09
2019-05-12T21:31:29.418Z,101375.50
2019-05-12T21:33:57.533Z,101375.48
2019-05-12T21:36:29.540Z,101377.75
2019-05-12T21:39:08.398Z,101383.73
2019-05-12T21:41:34.466Z,101384.13
2019-05-12T21:44:10.970Z,101390.74
2019-05-12T21:46:38.440Z,101396.50
2019-05-12T21:49:11.858Z,101393.95
2019-05-12T21:51:40.682Z,101403.03
2019-05-12T21:54:10.919Z,101408.71
2019-05-12T21:56:44.850Z,101407.44
2019-05-12T21:59:15.516Z,101406.19
2019-05-12T22:01:46.046Z,101410.56
2019-05-12T22:04:16.602Z,101413.17
2019-05-12T22:06:51.185Z,101410.23
2019-05-12T22:09:19.199Z,101414.17
2019-05-12T22:11:53.711Z,101421.13
2019-05-12T22:14:24.041Z,101421.19
2019-05-12T22:16:55.771Z,101425.45
2019-05-12T22:19:30.684Z,101425.95
2019-05-12T22:22:00.979Z,101430.31
2019-05-12T22:24:36.612Z,101423.84
2019-05-12T22:27:04.953Z,101423.05
2019-05-12T22:29:34.563Z,101432.23
2019-05-12T22:32:05.349Z,101437.84
2019-05-12T22:34:41.804Z,101436.12
2019-05-12T22:37:08.491Z,101447.88
2019-05-12T22:39:39.142Z,101449.61
2019-05-12T22:42:11.576Z,101446.15
2019-05-12T22:44:43.790Z,101440.98
2019-05-12T22:47:17.529Z,101446.16
2019-05-12T22:49:52.111Z,101449.21
2019-05-12T22:52:19.097Z,101443.61
2019-05-12T22:54:51.099Z,101444.05
2019-05-12T22:57:23.966Z,101443.18
2019-05-12T22:59:54.252Z,101449.34
2019-05-12T23:02:28.878Z,101442.37
2019-05-12T23:04:56.700Z,101443.25
2019-05-12T23:07:29.707Z,101445.44
2019-05-12T23:10:00.605Z,101457.13
2019-05-12T23:12:31.215Z,101454.55
2019-05-12T23:15:06.331Z,101458.91
2019-05-12T23:17:33.960Z,101458.48
2019-05-12T23:20:07.596Z,101461.52
2019-05-12T23:22:38.272Z,101465.43
2019-05-12T23:25:11.502Z,101468.47
2019-05-12T23:27:40.982Z,101465.00
2019-05-12T23:30:15.763Z,101466.74
2019-05-12T23:32:51.534Z,101464.12
2019-05-12T23:35:18.701Z,101474.16
2019-05-12T23:37:49.281Z,101467.17
2019-05-12T23:40:19.931Z,101465.00
2019-05-12T23:42:50.683Z,101468.86
2019-05-12T23:45:20.926Z,101479.73
2019-05-12T23:47:53.864Z,101461.95
2019-05-12T23:50:24.167Z,101481.50
2019-05-12T23:52:54.544Z,101482.80
2019-05-12T23:55:24.811Z,101478.42
2019-05-12T23:57:55.370Z,101483.21
